Flight Track Log - Related Links

Times and Time Zones

All times are in EDT time to prevent confusion due to time zone crossing. See the JIA2335 flight status page for this flight to view local times or setup timezone preferences in your user account.

Time Position Orientation Groundspeed Altitude Reporting Facility
EDT Latitude Longitude Course Direction KTS MPH feet Rate Location/Type
Thu 09:41:47 AM 39.8833 -75.2000 270° West 158 182 900  Level Philadelphia TRACON
Thu 09:43:17 AM 39.9167 -75.0833 70° East 233 268 4,800 2,522 Climbing Philadelphia TRACON
Thu 09:44:00 AM 39.9000 -75.5722 270° West  Level FlightAware Approximate
Thu 09:44:05 AM 39.9667 -75.0667 14° North 277 319 6,700  Level Philadelphia TRACON
Thu 09:45:00 AM 39.9132 -75.6876 258° West  Level FlightAware Approximate
Thu 09:45:11 AM 40.0000 -75.1500 298° West 278 320 9,800  Level Philadelphia TRACON
Thu 09:46:00 AM 39.9000 -75.8045 270° West  Level FlightAware Approximate
Thu 09:46:11 AM 39.9833 -75.2500 258° West 273 314 9,900  Level Philadelphia TRACON
Thu 09:47:00 AM 39.9000 -75.9232 270° West  Level FlightAware Approximate
Thu 09:47:11 AM 39.9667 -75.3333 255° West 267 307 10,000  Level Philadelphia TRACON
Thu 09:48:05 AM 39.9500 -75.4333 258° West 274 315 10,000  Level Philadelphia TRACON
Thu 09:49:06 AM 39.9386 -75.5222 261° West 296 341 10,000 645 Level New York Center
Thu 09:50:06 AM 39.9239 -75.6269 260° West 296 341 11,300 2,168 Climbing New York Center
Thu 09:51:05 AM 39.9172 -75.7375 266° West 301 346 14,300 2,500 Climbing New York Center
Thu 09:52:06 AM 39.9125 -75.8481 267° West 306 352 16,300 2,067 Climbing New York Center
Thu 09:53:04 AM 39.9117 -75.9644 270° West 311 358 18,400 1,900 Climbing New York Center
Thu 09:54:06 AM 39.9106 -76.0808 269° West 318 366 20,100 1,610 Climbing New York Center
Thu 09:55:07 AM 39.9114 -76.2025 271° West 329 379 21,700 1,475 Climbing New York Center
Thu 09:56:04 AM 39.9103 -76.3136 269° West 334 384 23,000 1,412 Climbing New York Center
Thu 09:57:06 AM 39.9169 -76.4386 274° West 341 392 24,500 1,475 Climbing New York Center
Thu 09:58:06 AM 39.9211 -76.5661 272° West 351 404 26,000 1,500 Climbing New York Center
Thu 09:59:06 AM 39.9256 -76.6883 273° West 351 404 27,500 1,400 Climbing New York Center
Thu 10:00:06 AM 39.9319 -76.8081 274° West 346 398 28,800 1,041 Climbing New York Center
Thu 10:01:07 AM 39.9358 -76.9356 272° West 346 398 29,600 756 Climbing New York Center
Thu 10:02:05 AM 39.9394 -77.0606 272° West 352 405 30,300 699 Climbing New York Center
Thu 10:04:33 AM 39.9558 -77.3925 274° West 362 417 32,000 490 Climbing Cleveland Center
Thu 10:05:33 AM 39.9594 -77.5278 272° West 368 423 32,000  Level Cleveland Center
Thu 10:06:33 AM 39.9650 -77.6631 273° West 368 423 32,000  Level Cleveland Center
Thu 10:07:33 AM 39.9706 -77.7983 273° West 375 432 32,000  Level Cleveland Center
Thu 10:08:33 AM 39.9717 -77.9336 271° West 375 432 32,000  Level Cleveland Center
Thu 10:09:33 AM 39.9767 -78.0661 273° West 375 432 32,000  Level Cleveland Center
Thu 10:10:33 AM 39.9817 -78.1989 273° West 375 432 32,000  Level Cleveland Center
Thu 10:11:33 AM 39.9886 -78.3286 274° West 368 423 32,000  Level Cleveland Center
Thu 10:12:33 AM 39.9953 -78.4558 274° West 362 417 32,000  Level Cleveland Center
Thu 10:13:33 AM 40.0017 -78.5803 274° West 357 411 32,000  Level Cleveland Center
Thu 10:14:33 AM 40.0081 -78.7075 274° West 357 411 32,000  Level Cleveland Center
Thu 10:15:33 AM 40.0161 -78.8292 275° West 352 405 32,000  Level Cleveland Center
Thu 10:16:33 AM 40.0222 -78.9539 274° West 347 399 32,000  Level Cleveland Center
Thu 10:17:33 AM 40.0281 -79.0783 274° West 347 399 32,000  Level Cleveland Center
Thu 10:18:33 AM 40.0339 -79.2031 274° West 347 399 32,000  Level Cleveland Center
Thu 10:19:33 AM 40.0417 -79.3331 275° West 347 399 32,000  Level Cleveland Center
Thu 10:20:33 AM 40.0469 -79.4603 273° West 352 405 32,000  Level Cleveland Center
Thu 10:21:33 AM 40.0525 -79.5931 273° West 357 411 32,000  Level Cleveland Center
Thu 10:22:33 AM 40.0597 -79.7097 275° West 357 411 32,000  Level Cleveland Center
Thu 10:23:33 AM 40.0647 -79.8425 273° West 368 423 32,000  Level Cleveland Center
Thu 10:24:33 AM 40.0697 -79.9781 273° West 368 423 32,000  Level Cleveland Center
Thu 10:25:33 AM 40.0744 -80.1111 273° West 373 429 32,000  Level Cleveland Center
Thu 10:26:33 AM 40.0833 -80.2467 275° West 373 429 32,000  Level Cleveland Center
Thu 10:27:33 AM 40.0878 -80.3850 272° West 378 435 32,000  Level Cleveland Center
Thu 10:28:33 AM 40.0942 -80.5206 274° West 383 441 32,000  Level Cleveland Center
Thu 10:29:33 AM 40.0983 -80.6592 272° West 383 441 32,000  Level Cleveland Center
Thu 10:30:33 AM 40.1025 -80.7947 272° West 383 441 32,000  Level Cleveland Center
Thu 10:33:00 AM 40.1125 -81.1367 272° West 384 442 32,000 -86 Level Indianapolis Center
Thu 10:34:02 AM 40.1167 -81.2778 272° West 384 442 31,700 -1,258 Descending Indianapolis Center
Thu 10:35:04 AM 40.1214 -81.4158 273° West 377 434 29,400 -1,790 Descending Indianapolis Center
Thu 10:36:06 AM 40.1250 -81.5514 272° West 369 425 28,000 -677 Descending Indianapolis Center
Thu 10:37:08 AM 40.1292 -81.6975 272° West 344 396 28,000 -484 Level Indianapolis Center
Thu 10:38:10 AM 40.1325 -81.8078 272° West 342 394 27,000 -1,258 Descending Indianapolis Center
Thu 10:39:12 AM 40.1364 -81.9592 272° West 353 406 25,400 -1,403 Descending Indianapolis Center
Thu 10:40:14 AM 40.1403 -82.0847 272° West 347 399 24,100 -1,161 Descending Indianapolis Center
Thu 10:41:16 AM 40.1428 -82.2094 272° West 342 394 23,000 -581 Descending Indianapolis Center
Thu 10:42:18 AM 40.1458 -82.3297 272° West 331 381 22,900 -97 Descending Indianapolis Center
Thu 10:43:20 AM 40.1478 -82.4456 271° West 320 368 22,800 -629 Descending Indianapolis Center
Thu 10:44:22 AM 40.1514 -82.5656 272° West 328 377 21,600 -1,113 Descending Indianapolis Center
Thu 10:45:24 AM 40.1564 -82.6817 273° West 320 368 20,500 -1,161 Descending Indianapolis Center
Thu 10:46:26 AM 40.1628 -82.8136 274° West 311 358 19,200 -1,161 Descending Indianapolis Center
Thu 10:47:28 AM 40.1692 -82.9308 274° West 320 368 18,100 -1,016 Descending Indianapolis Center
Thu 10:48:30 AM 40.1750 -83.0475 274° West 321 369 17,100 -1,065 Descending Indianapolis Center
Thu 10:49:32 AM 40.1814 -83.1653 274° West 323 372 15,900 -1,161 Descending Indianapolis Center
Thu 10:50:34 AM 40.1864 -83.2731 274° West 306 352 14,700 -1,291 Descending Indianapolis Center
Thu 10:50:51 AM 40.1881 -83.3161 273° West 280 322 14,200 -1,161 Descending Indianapolis Center
Thu 10:51:36 AM 40.1917 -83.3706 275° West 278 320 13,500 -1,164 Descending Indianapolis Center
Thu 10:51:58 AM 40.1933 -83.4178 273° West 260 299 12,900 -1,355 Descending Indianapolis Center
Thu 10:52:38 AM 40.1906 -83.4781 267° West 258 297 12,100 -1,180 Descending Indianapolis Center
Thu 10:52:59 AM 40.1806 -83.5064 245° Southwest 253 291 11,700 -1,161 Descending Indianapolis Center
Thu 10:53:40 AM 40.1617 -83.5600 245° Southwest 249 287 10,900 -1,282 Descending Indianapolis Center
Thu 10:54:42 AM 40.1331 -83.6403 245° Southwest 244 281 9,500 -1,403 Descending Indianapolis Center
Thu 10:55:44 AM 40.1031 -83.7244 245° Southwest 252 290 8,000 -1,452 Descending Indianapolis Center
Thu 10:56:46 AM 40.0731 -83.8086 245° Southwest 255 293 6,500 -1,429 Descending Indianapolis Center
Thu 10:57:08 AM 40.0589 -83.8486 245° Southwest 254 292 6,000 -761 Descending Indianapolis Center
Thu 10:57:57 AM 40.0328 -83.9189 244° Southwest 255 293 5,600 -824 Descending Indianapolis Center
Thu 10:58:50 AM 40.0081 -83.9889 245° Southwest 253 291 4,600 -1,132 Descending Indianapolis Center

Login

Don't have an account? Register now (free) for customized features, flight alerts, and more!